Aérodrome :
LOGIN :

S'inscrire | Disclaimer

   EN    FR    IT 

 










Légende :    VFR   VFR Marginal   IFR   IFR Intensif   IFR Très Intensif
Visi : 
Plafond : 
>= 8 km
>= 3000ft
5 à 8 km
1000 à 3000 ft
1500m à 5 km
500 à 1000 ft
800 à 1500m
200 à 500 ft
< 800m
< 200 ft
Symboles :   Orages  Brouillard  Fortes neiges  Fortes précipitations  Vent > 20 kt
SIGMETs :   Divers  Orages  Givrage  Turbulence  Onde Orograph.  Cendres Volcan.







- Altitude de l'aérodrome : 13 ft
- Code IATA : OST


EBOS - Oostend bruges Int.

DERNIER METAR :
  • 250650Z 22005KT 0300 R08/0500N R26/0600N FG BKN001 13/12 Q1017 NOSIG

METARs EXPIRÉS :
  • 250620Z 21005KT 0350 R08/0550N R26/0600N FG BKN001 13/11 Q1017 NOSIG
  • 250550Z 21004KT 0200 R08/0450U R26/0300N FG BKN001 13/11 Q1017 NOSIG
  • 250520Z 21005KT 0100 R08/0250N R26/0225N FG BKN000 13/11 Q1017 NOSIG
  • 250450Z 22003KT 170V250 0100 R08/0200N R26/0225N FG BKN000 13/11 Q1017 NOSIG
  • 250420Z 22006KT 0100 R08/0200N R26/0250N FG BKN001 13/11 Q1017 NOSIG

TAF TAF EBOS
Valide du 25 à 06h jusqu'au 26 à 12h UTC


250520Z 2506/2612 0250 FG BKN001
PROB30
TEMPO 2506/2511 3000 BR SCT002
BECMG 2510/2512 6000 NSW SCT006
PROB30
TEMPO 2509/2517 BKN005
BECMG 2515/2517 02010KT
PROB40
TEMPO 2517/2607 0200 FG BKN001
Pas de NOTAMs connus pour ce terrain.



MET'MAP, la Météo Aéronautique d'un coup d'oeil ! - Copyright ORBIFLY Décembre 2007 - Disclaimer

ORBIFLY MET'MAP TEAM :

Programmation & Développement : Alexandra Zaïnal
Conception & Développement : Baudouin d'Aumeries
Co-Programmation & Développement : Marc-Olivier Méhu
Soutien technique & logistique : Manuel Goepfert

Contact : metmap@orbifly.com




SOURCES & CREDITS :

   NOAA